createdAt,value
2022-09-06T00:01:56.185Z,98.90
2022-09-06T00:04:23.160Z,99.00
2022-09-06T00:06:50.024Z,99.10
2022-09-06T00:09:16.872Z,99.10
2022-09-06T00:11:43.606Z,99.00
2022-09-06T00:14:10.400Z,99.00
2022-09-06T00:16:37.269Z,99.00
2022-09-06T00:19:04.041Z,99.00
2022-09-06T00:21:31.542Z,99.10
2022-09-06T00:23:58.529Z,99.10
2022-09-06T00:26:25.333Z,99.10
2022-09-06T00:28:52.197Z,98.90
2022-09-06T00:31:21.774Z,98.70
2022-09-06T00:33:49.973Z,98.70
2022-09-06T00:36:17.826Z,98.70
2022-09-06T00:38:45.510Z,98.90
2022-09-06T00:41:15.028Z,98.60
2022-09-06T00:43:43.031Z,98.40
2022-09-06T00:46:15.402Z,98.40
2022-09-06T00:48:44.783Z,98.30
2022-09-06T00:51:15.400Z,98.00
2022-09-06T00:53:42.262Z,98.00
2022-09-06T00:56:09.682Z,98.10
2022-09-06T00:58:37.147Z,98.10
2022-09-06T01:01:05.344Z,98.10
2022-09-06T01:03:32.536Z,98.00
2022-09-06T01:06:17.618Z,98.00
2022-09-06T01:08:53.581Z,98.00
2022-09-06T01:11:38.435Z,98.20
2022-09-06T01:14:17.190Z,98.40
2022-09-06T01:16:55.998Z,98.40
2022-09-06T01:19:41.118Z,99.10
2022-09-06T01:22:16.966Z,99.30
2022-09-06T01:25:21.797Z,98.30
2022-09-06T01:28:27.397Z,97.50
2022-09-06T01:31:05.378Z,96.90
2022-09-06T01:33:45.940Z,96.50
2022-09-06T01:36:17.288Z,96.60
2022-09-06T01:38:44.377Z,96.80
2022-09-06T01:41:11.721Z,96.90
2022-09-06T01:43:42.644Z,97.00
2022-09-06T01:46:31.106Z,97.40
2022-09-06T01:49:19.081Z,97.60
2022-09-06T01:51:45.823Z,97.90
2022-09-06T01:54:19.018Z,98.50
2022-09-06T01:56:54.668Z,98.70
2022-09-06T01:59:24.102Z,99.10
2022-09-06T02:02:24.807Z,99.50
2022-09-06T02:05:01.350Z,99.80
2022-09-06T02:07:31.336Z,99.90
2022-09-06T02:10:24.073Z,99.90
2022-09-06T02:12:55.189Z,99.90
2022-09-06T02:15:32.427Z,99.90
2022-09-06T02:18:22.268Z,99.90
2022-09-06T02:20:56.344Z,99.90
2022-09-06T02:23:27.335Z,99.90
2022-09-06T02:26:01.579Z,99.90
2022-09-06T02:28:28.582Z,99.90
2022-09-06T02:31:00.919Z,99.90
2022-09-06T02:33:31.889Z,99.90
2022-09-06T02:36:05.853Z,99.90
2022-09-06T02:38:36.746Z,99.90
2022-09-06T02:41:04.410Z,99.90
2022-09-06T02:43:31.286Z,99.90
2022-09-06T02:45:58.233Z,99.90
2022-09-06T02:48:25.130Z,99.90
2022-09-06T02:50:52.172Z,99.90
2022-09-06T02:53:18.988Z,99.90
2022-09-06T02:55:48.868Z,99.90
2022-09-06T02:58:16.288Z,99.90
2022-09-06T03:00:44.017Z,99.90
2022-09-06T03:03:11.097Z,99.90
2022-09-06T03:05:38.272Z,99.90
2022-09-06T03:08:05.120Z,99.90
2022-09-06T03:10:31.937Z,99.90
2022-09-06T03:12:58.864Z,99.90
2022-09-06T03:15:25.797Z,99.90
2022-09-06T03:17:56.825Z,99.90
2022-09-06T03:20:23.646Z,99.90
2022-09-06T03:22:50.457Z,99.90
2022-09-06T03:25:17.273Z,99.90
2022-09-06T03:27:44.215Z,99.90
2022-09-06T03:30:11.583Z,99.90
2022-09-06T03:32:38.442Z,99.90
2022-09-06T03:35:05.486Z,99.90
2022-09-06T03:37:32.225Z,99.90
2022-09-06T03:39:59.883Z,99.90
2022-09-06T03:42:27.479Z,99.90
2022-09-06T03:44:54.269Z,99.90
2022-09-06T03:47:21.238Z,99.90
2022-09-06T03:49:47.985Z,99.90
2022-09-06T03:52:15.127Z,99.90
2022-09-06T03:54:42.029Z,99.90
2022-09-06T03:57:09.385Z,99.90
2022-09-06T03:59:36.463Z,99.90
2022-09-06T04:02:03.849Z,99.90
2022-09-06T04:04:30.654Z,99.90
2022-09-06T04:06:57.542Z,99.90
2022-09-06T04:09:24.305Z,99.90
2022-09-06T04:11:51.407Z,99.90
2022-09-06T04:14:18.318Z,99.90
2022-09-06T04:16:45.121Z,99.90
2022-09-06T04:19:11.923Z,99.90
2022-09-06T04:21:38.876Z,99.90
2022-09-06T04:24:05.734Z,99.90
2022-09-06T04:26:32.774Z,99.90
2022-09-06T04:28:59.617Z,99.90
2022-09-06T04:31:26.429Z,99.90
2022-09-06T04:33:53.276Z,99.90
2022-09-06T04:36:20.032Z,99.90
2022-09-06T04:38:46.838Z,99.90
2022-09-06T04:41:15.781Z,99.90
2022-09-06T04:43:42.982Z,99.90
2022-09-06T04:46:23.152Z,99.90
2022-09-06T04:48:50.479Z,99.90
2022-09-06T04:51:18.087Z,99.90
2022-09-06T04:53:45.540Z,99.90
2022-09-06T04:56:16.065Z,99.90
2022-09-06T04:58:44.437Z,99.90
2022-09-06T05:01:11.368Z,99.90
2022-09-06T05:03:38.402Z,99.90
2022-09-06T05:06:09.919Z,99.90
2022-09-06T05:08:38.436Z,99.90
2022-09-06T05:11:06.460Z,99.90
2022-09-06T05:13:33.735Z,99.90
2022-09-06T05:16:05.441Z,99.90
2022-09-06T05:18:32.481Z,99.90
2022-09-06T05:21:00.042Z,99.90
2022-09-06T05:23:27.601Z,99.90
2022-09-06T05:25:54.865Z,99.90
2022-09-06T05:28:21.882Z,99.90
2022-09-06T05:30:48.774Z,99.90
2022-09-06T05:33:21.344Z,99.90
2022-09-06T05:35:49.173Z,99.90
2022-09-06T05:38:16.382Z,99.90
2022-09-06T05:40:43.501Z,99.90
2022-09-06T05:43:10.483Z,99.90
2022-09-06T05:45:37.649Z,99.90
2022-09-06T05:48:04.899Z,99.90
2022-09-06T05:50:31.775Z,99.90
2022-09-06T05:52:58.634Z,99.90
2022-09-06T05:55:25.528Z,99.90
2022-09-06T05:57:52.331Z,99.90
2022-09-06T06:00:19.508Z,99.90
2022-09-06T06:02:50.062Z,99.90
2022-09-06T06:05:17.220Z,99.90
2022-09-06T06:07:43.985Z,99.90
2022-09-06T06:10:10.881Z,99.90
2022-09-06T06:12:37.703Z,99.90
2022-09-06T06:15:05.799Z,99.90
2022-09-06T06:17:32.693Z,99.90
2022-09-06T06:19:59.463Z,99.90
2022-09-06T06:22:26.242Z,99.90
2022-09-06T06:24:53.054Z,99.90
2022-09-06T06:27:19.892Z,99.90
2022-09-06T06:29:46.697Z,99.90
2022-09-06T06:32:13.441Z,99.90
2022-09-06T06:34:40.243Z,99.90
2022-09-06T06:37:07.376Z,99.90
2022-09-06T06:39:34.240Z,99.90
2022-09-06T06:42:01.086Z,99.90
2022-09-06T06:44:28.238Z,99.90
2022-09-06T06:46:57.859Z,99.90
2022-09-06T06:49:25.159Z,99.90
2022-09-06T06:51:51.929Z,99.90
2022-09-06T06:54:18.813Z,99.90
2022-09-06T06:56:45.864Z,99.90
2022-09-06T06:59:12.874Z,99.90
2022-09-06T07:01:40.179Z,99.90
2022-09-06T07:04:08.698Z,99.90
2022-09-06T07:12:24.940Z,99.90
2022-09-06T07:14:51.680Z,99.90
2022-09-06T07:17:18.487Z,99.90
2022-09-06T07:22:32.177Z,99.90
2022-09-06T07:24:59.017Z,99.90
2022-09-06T07:30:14.314Z,99.90
2022-09-06T07:32:41.267Z,99.90
2022-09-06T07:35:08.788Z,99.90
2022-09-06T07:37:35.583Z,99.90
2022-09-06T07:40:03.545Z,99.90
2022-09-06T07:42:36.209Z,99.90
2022-09-06T07:45:04.254Z,99.90
2022-09-06T07:53:12.904Z,99.90
2022-09-06T07:55:44.542Z,99.90
2022-09-06T07:58:11.401Z,99.90
2022-09-06T08:00:41.593Z,99.90
2022-09-06T08:03:08.821Z,99.90
2022-09-06T08:11:13.227Z,99.90
2022-09-06T08:13:40.087Z,99.90
2022-09-06T08:16:09.326Z,99.90
2022-09-06T08:18:37.043Z,99.90
2022-09-06T08:21:26.726Z,99.90
2022-09-06T08:23:57.562Z,99.90
2022-09-06T08:26:26.357Z,99.90
2022-09-06T08:29:01.297Z,99.90
2022-09-06T08:31:30.683Z,99.90
2022-09-06T08:33:59.670Z,99.90
2022-09-06T08:36:29.729Z,99.90
2022-09-06T08:39:03.155Z,99.90
2022-09-06T08:41:54.668Z,99.90
2022-09-06T08:47:20.418Z,99.90
2022-09-06T08:50:02.359Z,99.90
2022-09-06T08:52:54.411Z,99.90
2022-09-06T08:55:32.471Z,99.90
2022-09-06T08:58:11.626Z,99.90
2022-09-06T09:00:39.067Z,99.90
2022-09-06T09:03:25.302Z,99.90
2022-09-06T09:05:53.923Z,99.90
2022-09-06T09:08:59.111Z,99.90
2022-09-06T09:11:26.282Z,99.90
2022-09-06T09:14:08.948Z,99.90
2022-09-06T09:16:36.133Z,99.90
2022-09-06T09:19:05.093Z,99.90
2022-09-06T09:21:36.448Z,99.90
2022-09-06T09:24:15.412Z,99.90
2022-09-06T09:26:45.019Z,99.90
2022-09-06T09:29:14.607Z,99.90
2022-09-06T09:31:54.120Z,99.90
2022-09-06T09:34:34.530Z,99.90
2022-09-06T09:37:52.957Z,99.90
2022-09-06T09:40:12.948Z,99.90
2022-09-06T09:42:40.402Z,99.90
2022-09-06T09:45:22.782Z,99.90
2022-09-06T09:47:50.613Z,99.90
2022-09-06T09:50:33.619Z,99.90
2022-09-06T09:53:15.997Z,99.90
2022-09-06T09:55:44.190Z,99.90
2022-09-06T09:58:32.038Z,99.90
2022-09-06T10:01:17.102Z,98.80
2022-09-06T10:09:29.657Z,98.80
2022-09-06T10:11:59.228Z,98.90
2022-09-06T10:14:30.104Z,97.60
2022-09-06T10:16:58.473Z,97.50
2022-09-06T10:19:37.998Z,97.60
2022-09-06T10:22:29.020Z,97.20
2022-09-06T10:25:14.591Z,97.40
2022-09-06T10:28:11.451Z,97.30
2022-09-06T10:31:01.586Z,97.10
2022-09-06T10:34:07.298Z,96.60
2022-09-06T10:37:00.754Z,96.00
2022-09-06T10:39:39.585Z,95.80
2022-09-06T10:42:13.965Z,96.30
2022-09-06T10:44:56.087Z,96.00
2022-09-06T10:47:29.730Z,94.80
2022-09-06T10:50:00.767Z,94.90
2022-09-06T10:52:34.084Z,95.30
2022-09-06T10:55:05.143Z,94.70
2022-09-06T11:00:55.464Z,95.00
2022-09-06T11:06:28.795Z,94.10
2022-09-06T11:09:19.853Z,93.60
2022-09-06T11:11:55.364Z,93.40
2022-09-06T11:14:25.525Z,93.30
2022-09-06T11:16:59.757Z,92.80
2022-09-06T11:20:18.750Z,93.40
2022-09-06T11:23:10.459Z,93.00
2022-09-06T11:26:06.953Z,92.90
2022-09-06T11:28:52.337Z,92.20
2022-09-06T11:34:31.762Z,92.40
2022-09-06T11:37:04.617Z,91.20
2022-09-06T11:42:41.205Z,90.30
2022-09-06T11:45:07.981Z,89.90
2022-09-06T11:47:40.625Z,89.80
2022-09-06T11:50:26.875Z,90.10
2022-09-06T11:53:17.384Z,88.90
2022-09-06T11:55:46.129Z,88.00
2022-09-06T11:58:27.883Z,89.80
2022-09-06T12:01:13.278Z,88.60
2022-09-06T12:06:36.369Z,87.50
2022-09-06T12:09:31.204Z,86.90
2022-09-06T12:11:59.468Z,86.80
2022-09-06T12:14:36.540Z,86.10
2022-09-06T12:17:05.068Z,86.20
2022-09-06T12:19:47.290Z,87.20
2022-09-06T12:22:29.411Z,84.80
2022-09-06T12:25:05.618Z,85.60
2022-09-06T12:27:39.310Z,84.60
2022-09-06T12:30:09.923Z,84.40
2022-09-06T12:32:46.847Z,84.30
2022-09-06T12:38:12.043Z,83.20
2022-09-06T12:40:52.461Z,84.60
2022-09-06T12:43:19.841Z,81.30
2022-09-06T12:45:51.289Z,82.80
2022-09-06T12:48:32.421Z,82.40
2022-09-06T12:51:05.494Z,80.50
2022-09-06T12:53:34.177Z,80.10
2022-09-06T12:56:12.612Z,80.10
2022-09-06T12:58:40.234Z,80.40
2022-09-06T13:01:12.774Z,78.50
2022-09-06T13:03:42.814Z,78.50
2022-09-06T13:06:21.192Z,79.00
2022-09-06T13:08:53.538Z,79.00
2022-09-06T13:11:30.748Z,78.60
2022-09-06T13:13:58.218Z,79.90
2022-09-06T13:16:34.977Z,78.30
2022-09-06T13:19:13.689Z,78.30
2022-09-06T13:21:43.355Z,79.50
2022-09-06T13:24:45.831Z,78.30
2022-09-06T13:27:30.409Z,79.40
2022-09-06T13:30:07.136Z,78.50
2022-09-06T13:32:35.448Z,78.40
2022-09-06T13:35:03.387Z,78.20
2022-09-06T13:37:33.664Z,76.70
2022-09-06T13:40:02.667Z,75.20
2022-09-06T13:42:38.230Z,76.30
2022-09-06T13:45:23.870Z,75.00
2022-09-06T13:47:51.015Z,75.00
2022-09-06T13:50:18.291Z,76.80
2022-09-06T13:52:45.153Z,75.40
2022-09-06T13:55:16.229Z,75.30
2022-09-06T13:57:42.983Z,74.30
2022-09-06T14:00:11.015Z,74.20
2022-09-06T14:02:39.819Z,74.90
2022-09-06T14:05:06.845Z,76.50
2022-09-06T14:07:33.607Z,77.00
2022-09-06T14:10:01.215Z,78.00
2022-09-06T14:12:28.222Z,78.60
2022-09-06T14:14:55.152Z,78.60
2022-09-06T14:17:25.043Z,79.70
2022-09-06T14:19:51.855Z,78.50
2022-09-06T14:22:18.814Z,78.20
2022-09-06T14:24:45.600Z,76.70
2022-09-06T14:27:12.630Z,76.70
2022-09-06T14:29:40.024Z,74.20
2022-09-06T14:32:07.185Z,69.20
2022-09-06T14:34:34.102Z,69.20
2022-09-06T14:37:01.034Z,69.50
2022-09-06T14:39:27.836Z,69.60
2022-09-06T14:41:54.928Z,68.50
2022-09-06T14:44:22.128Z,66.70
2022-09-06T14:46:53.312Z,67.80
2022-09-06T14:49:20.774Z,68.80
2022-09-06T14:51:47.618Z,68.90
2022-09-06T14:54:15.933Z,67.30
2022-09-06T14:56:43.930Z,68.10
2022-09-06T14:59:11.682Z,67.40
2022-09-06T15:01:39.168Z,65.50
2022-09-06T15:04:08.526Z,65.30
2022-09-06T15:06:36.896Z,65.60
2022-09-06T15:09:05.563Z,65.00
2022-09-06T15:11:40.246Z,66.10
2022-09-06T15:14:12.959Z,65.20
2022-09-06T15:16:39.854Z,64.60
2022-09-06T15:19:07.898Z,65.00
2022-09-06T15:21:35.089Z,65.20
2022-09-06T15:24:02.597Z,63.00
2022-09-06T15:26:30.854Z,63.80
2022-09-06T15:28:57.827Z,64.40
2022-09-06T15:31:24.888Z,64.00
2022-09-06T15:33:52.894Z,63.30
2022-09-06T15:36:20.816Z,62.60
2022-09-06T15:38:49.924Z,63.60
2022-09-06T15:41:24.835Z,60.90
2022-09-06T15:43:55.398Z,61.30
2022-09-06T15:46:41.562Z,62.20
2022-09-06T15:49:17.264Z,62.50
2022-09-06T15:55:21.624Z,61.30
2022-09-06T15:57:48.617Z,61.40
2022-09-06T16:00:17.564Z,61.20
2022-09-06T16:02:44.775Z,61.00
2022-09-06T16:05:11.692Z,60.50
2022-09-06T16:07:42.972Z,60.30
2022-09-06T16:10:11.634Z,60.50
2022-09-06T16:12:39.359Z,61.00
2022-09-06T16:15:06.827Z,61.50
2022-09-06T16:17:33.908Z,62.80
2022-09-06T16:20:02.215Z,63.40
2022-09-06T16:22:30.729Z,63.90
2022-09-06T16:24:57.663Z,62.80
2022-09-06T16:27:24.826Z,61.10
2022-09-06T16:29:52.292Z,61.80
2022-09-06T16:32:19.245Z,61.50
2022-09-06T16:34:46.794Z,61.60
2022-09-06T16:37:14.055Z,61.10
2022-09-06T16:39:41.170Z,62.00
2022-09-06T16:42:08.156Z,63.70
2022-09-06T16:44:35.063Z,63.00
2022-09-06T16:47:04.146Z,63.50
2022-09-06T16:49:31.126Z,64.10
2022-09-06T16:51:58.015Z,64.80
2022-09-06T16:54:24.951Z,66.20
2022-09-06T16:56:51.833Z,66.10
2022-09-06T16:59:19.123Z,67.00
2022-09-06T17:01:47.305Z,66.00
2022-09-06T17:04:14.975Z,65.80
2022-09-06T17:06:45.565Z,65.60
2022-09-06T17:09:18.816Z,66.00
2022-09-06T17:11:46.881Z,66.30
2022-09-06T17:14:13.890Z,66.50
2022-09-06T17:16:59.516Z,67.50
2022-09-06T17:19:26.699Z,69.60
2022-09-06T17:21:53.968Z,70.50
2022-09-06T17:24:20.952Z,70.70
2022-09-06T17:26:47.897Z,70.50
2022-09-06T17:29:14.748Z,72.50
2022-09-06T17:31:41.603Z,72.30
2022-09-06T17:34:08.529Z,73.50
2022-09-06T17:36:36.432Z,73.60
2022-09-06T17:39:09.263Z,73.50
2022-09-06T17:41:39.314Z,73.40
2022-09-06T17:44:07.710Z,74.50
2022-09-06T17:46:34.550Z,73.80
2022-09-06T17:49:01.565Z,74.00
2022-09-06T17:51:29.468Z,74.10
2022-09-06T17:53:56.919Z,74.30
2022-09-06T17:56:24.140Z,79.10
2022-09-06T17:58:55.766Z,77.30
2022-09-06T18:01:24.995Z,79.50
2022-09-06T18:03:52.718Z,79.50
2022-09-06T18:06:32.869Z,81.10
2022-09-06T18:09:11.551Z,78.80
2022-09-06T18:11:40.057Z,79.70
2022-09-06T18:14:12.868Z,81.40
2022-09-06T18:16:40.492Z,78.60
2022-09-06T18:19:08.477Z,78.90
2022-09-06T18:21:37.645Z,80.90
2022-09-06T18:24:05.483Z,81.60
2022-09-06T18:26:32.960Z,80.50
2022-09-06T18:29:00.452Z,79.80
2022-09-06T18:31:30.595Z,80.00
2022-09-06T18:34:00.501Z,82.00
2022-09-06T18:36:31.976Z,81.60
2022-09-06T18:39:05.191Z,82.40
2022-09-06T18:41:52.231Z,81.80
2022-09-06T18:44:19.294Z,80.90
2022-09-06T18:46:46.898Z,79.80
2022-09-06T18:49:15.086Z,79.10
2022-09-06T18:51:42.657Z,78.90
2022-09-06T18:54:10.991Z,78.90
2022-09-06T18:56:38.501Z,79.30
2022-09-06T18:59:05.870Z,79.20
2022-09-06T19:01:35.019Z,79.10
2022-09-06T19:04:03.580Z,79.30
2022-09-06T19:06:32.515Z,79.20
2022-09-06T19:09:05.259Z,79.50
2022-09-06T19:11:32.209Z,79.70
2022-09-06T19:13:59.236Z,79.60
2022-09-06T19:16:27.838Z,79.50
2022-09-06T19:18:56.224Z,79.90
2022-09-06T19:21:27.857Z,80.10
2022-09-06T19:24:00.935Z,79.50
2022-09-06T19:26:31.640Z,80.00
2022-09-06T19:29:00.561Z,79.60
2022-09-06T19:31:30.064Z,79.40
2022-09-06T19:33:58.221Z,79.10
2022-09-06T19:36:31.436Z,79.20
2022-09-06T19:39:07.599Z,79.00
2022-09-06T19:41:38.308Z,79.20
2022-09-06T19:44:07.814Z,79.00
2022-09-06T19:46:35.238Z,78.90
2022-09-06T19:49:02.297Z,78.90
2022-09-06T19:51:29.363Z,79.00
2022-09-06T19:53:57.748Z,79.00
2022-09-06T19:56:27.214Z,79.20
2022-09-06T19:58:55.754Z,78.90
2022-09-06T20:01:23.496Z,78.90
2022-09-06T20:03:50.800Z,78.60
2022-09-06T20:06:17.782Z,78.70
2022-09-06T20:08:44.604Z,78.70
2022-09-06T20:11:14.485Z,78.90
2022-09-06T20:13:42.748Z,79.20
2022-09-06T20:16:10.474Z,79.30
2022-09-06T20:18:37.877Z,79.20
2022-09-06T20:21:05.921Z,80.00
2022-09-06T20:23:34.479Z,80.60
2022-09-06T20:26:16.142Z,81.10
2022-09-06T20:28:44.056Z,81.40
2022-09-06T20:31:15.438Z,81.50
2022-09-06T20:33:45.915Z,82.30
2022-09-06T20:36:17.021Z,83.50
2022-09-06T20:38:44.953Z,84.30
2022-09-06T20:41:14.433Z,84.60
2022-09-06T20:43:42.574Z,84.40
2022-09-06T20:46:12.383Z,84.50
2022-09-06T20:48:44.215Z,84.60
2022-09-06T20:51:20.366Z,84.60
2022-09-06T20:53:51.025Z,84.70
2022-09-06T20:56:20.319Z,84.90
2022-09-06T20:59:01.206Z,85.00
2022-09-06T21:01:30.404Z,85.20
2022-09-06T21:03:59.439Z,85.50
2022-09-06T21:06:27.832Z,85.80
2022-09-06T21:08:55.294Z,86.10
2022-09-06T21:11:22.273Z,86.30
2022-09-06T21:13:56.021Z,86.50
2022-09-06T21:16:25.241Z,86.90
2022-09-06T21:18:54.073Z,87.00
2022-09-06T21:21:22.233Z,87.30
2022-09-06T21:23:49.502Z,87.60
2022-09-06T21:26:17.152Z,88.00
2022-09-06T21:28:47.724Z,88.30
2022-09-06T21:31:24.873Z,88.80
2022-09-06T21:33:56.985Z,88.80
2022-09-06T21:36:31.521Z,90.00
2022-09-06T21:39:03.457Z,89.60
2022-09-06T21:41:31.320Z,89.80
2022-09-06T21:44:00.273Z,89.90
2022-09-06T21:46:33.384Z,90.00
2022-09-06T21:49:10.115Z,90.10
2022-09-06T21:51:37.613Z,90.20
2022-09-06T21:54:04.726Z,90.30
2022-09-06T21:56:34.153Z,90.40
2022-09-06T21:59:01.422Z,90.50
2022-09-06T22:01:31.749Z,90.50
2022-09-06T22:03:58.962Z,90.40
2022-09-06T22:06:28.761Z,90.50
2022-09-06T22:08:57.772Z,90.50
2022-09-06T22:11:27.330Z,90.50
2022-09-06T22:13:57.686Z,90.40
2022-09-06T22:16:24.953Z,90.30
2022-09-06T22:18:51.799Z,90.40
2022-09-06T22:21:21.214Z,90.40
2022-09-06T22:23:52.969Z,90.50
2022-09-06T22:26:20.477Z,90.60
2022-09-06T22:28:48.112Z,90.60
2022-09-06T22:31:15.056Z,90.70
2022-09-06T22:33:41.953Z,90.70
2022-09-06T22:36:10.304Z,90.70
2022-09-06T22:38:37.225Z,90.90
2022-09-06T22:41:04.819Z,90.90
2022-09-06T22:43:32.028Z,91.10
2022-09-06T22:46:03.797Z,91.30
2022-09-06T22:48:30.783Z,91.30
2022-09-06T22:50:57.684Z,91.50
2022-09-06T22:53:24.478Z,91.60
2022-09-06T22:55:51.282Z,91.60
2022-09-06T22:58:18.051Z,91.70
2022-09-06T23:00:45.615Z,91.70
2022-09-06T23:03:14.924Z,91.70
2022-09-06T23:05:41.825Z,91.70
2022-09-06T23:08:08.578Z,91.80
2022-09-06T23:10:41.648Z,91.80
2022-09-06T23:13:09.820Z,91.80
2022-09-06T23:15:46.040Z,91.80
2022-09-06T23:18:13.883Z,91.90
2022-09-06T23:20:40.983Z,91.90
2022-09-06T23:23:08.613Z,92.00
2022-09-06T23:25:39.438Z,92.10
2022-09-06T23:28:07.031Z,92.20
2022-09-06T23:30:37.891Z,92.30
2022-09-06T23:33:04.967Z,92.30
2022-09-06T23:35:31.735Z,92.50
2022-09-06T23:37:58.614Z,92.60
2022-09-06T23:40:25.365Z,92.70
2022-09-06T23:42:52.340Z,93.00
2022-09-06T23:45:19.752Z,92.90
2022-09-06T23:47:46.569Z,92.90
2022-09-06T23:50:13.476Z,93.10
2022-09-06T23:52:40.224Z,93.30
2022-09-06T23:55:09.341Z,92.50
2022-09-06T23:57:36.367Z,93.50
